Time;durP1;ratioP1;P1;durP2;ratioP2;P2;SDS_P1;SDS_P2;PMS_P1;PMS_P2;Temp;Humidity;BMP_temperature;BMP_pressure;BME280_temperature;BME280_humidity;BME280_pressure;Samples;Min_cycle;Max_cycle;Signal;HPM_P1;HPM_P2
2021/11/07 00:11:02;;;;;;;3.50;3.30;;;10.80;99.90;;;;;;5184265;23;20467;-93
2021/11/07 00:21:24;;;;;;;3.50;3.40;;;10.60;99.90;;;;;;6014563;23;20420;-89
2021/11/07 00:24:28;;;;;;;3.65;3.45;;;11.60;99.90;;;;;;5011189;28;20416;-90
2021/11/07 00:27:08;;;;;;;3.70;3.60;;;12.60;99.90;;;;;;5019617;28;20184;-91
2021/11/07 00:44:15;;;;;;;5.85;5.05;;;9.60;99.90;;;;;;5027469;28;20420;-92
2021/11/07 00:46:53;;;;;;;6.03;5.17;;;11.70;99.90;;;;;;5004603;28;20231;-90
2021/11/07 00:50:07;;;;;;;5.13;4.73;;;8.60;99.90;;;;;;4993085;28;20427;-91
2021/11/07 00:55:23;;;;;;;5.23;5.03;;;7.90;99.90;;;;;;5025758;28;20873;-91
2021/11/07 00:57:55;;;;;;;5.57;5.13;;;10.60;99.90;;;;;;5022683;28;20471;-91
2021/11/07 01:00:50;;;;;;;7.60;6.73;;;10.30;99.90;;;;;;5021840;28;20482;-89
2021/11/07 01:03:24;;;;;;;7.00;6.30;;;12.20;99.90;;;;;;5010015;28;20434;-91
2021/11/07 01:06:30;;;;;;;7.13;6.37;;;11.70;99.90;;;;;;5025746;28;20187;-91
2021/11/07 01:08:57;;;;;;;6.55;6.05;;;9.90;99.90;;;;;;5009064;28;20495;-90
2021/11/07 01:11:26;;;;;;;7.18;6.47;;;12.00;99.90;;;;;;5006338;28;20196;-91
2021/11/07 01:13:55;;;;;;;10.55;6.45;;;14.80;99.90;;;;;;5007085;28;20188;-89
2021/11/07 01:16:22;;;;;;;7.50;7.00;;;13.50;99.90;;;;;;5002757;28;20664;-90
2021/11/07 01:18:47;;;;;;;7.68;7.00;;;10.20;99.90;;;;;;5002990;28;20243;-89
2021/11/07 01:21:18;;;;;;;7.20;6.60;;;11.20;99.90;;;;;;4999216;28;20524;-89
2021/11/07 01:23:55;;;;;;;7.25;6.68;;;11.40;99.90;;;;;;5000408;28;20419;-92
2021/11/07 01:26:29;;;;;;;8.13;7.43;;;14.00;99.90;;;;;;4999938;28;20322;-90
2021/11/07 01:31:54;;;;;;;7.03;6.18;;;11.60;99.90;;;;;;5009297;28;20192;-90
2021/11/07 01:34:39;;;;;;;8.25;7.45;;;8.40;99.90;;;;;;5003101;28;20173;-89
2021/11/07 01:37:20;;;;;;;7.80;7.20;;;12.40;99.90;;;;;;5002634;28;20275;-90
2021/11/07 01:44:56;;;;;;;7.25;6.65;;;10.10;99.90;;;;;;5021894;28;20230;-90
2021/11/07 01:47:24;;;;;;;15.45;8.38;;;9.70;99.90;;;;;;5004164;28;20167;-90
2021/11/07 01:49:49;;;;;;;7.55;6.90;;;10.20;99.90;;;;;;5004078;28;20299;-90
2021/11/07 01:52:16;;;;;;;10.97;7.50;;;11.20;99.90;;;;;;5016484;28;20156;-88
2021/11/07 01:57:30;;;;;;;8.20;7.43;;;10.80;99.90;;;;;;5024592;28;20204;-89
2021/11/07 02:00:27;;;;;;;5.37;5.00;;;11.80;99.90;;;;;;5006860;28;20176;-91
2021/11/07 02:03:03;;;;;;;7.82;7.28;;;8.90;99.90;;;;;;5010527;28;20407;-91
2021/11/07 02:05:29;;;;;;;7.55;6.78;;;11.30;99.90;;;;;;5024881;28;20176;-88
2021/11/07 02:07:55;;;;;;;7.53;6.93;;;7.80;99.90;;;;;;5008597;28;20180;-91
2021/11/07 02:10:23;;;;;;;8.00;7.40;;;11.20;99.90;;;;;;5006499;28;20252;-91
2021/11/07 02:12:50;;;;;;;7.22;6.72;;;6.50;99.90;;;;;;5022898;28;20743;-90
2021/11/07 02:15:19;;;;;;;9.73;5.63;;;9.50;99.90;;;;;;5014287;28;20199;-91
2021/11/07 02:17:52;;;;;;;9.93;8.70;;;10.10;99.90;;;;;;5032743;28;20270;-91
2021/11/07 02:20:29;;;;;;;7.90;7.38;;;12.10;99.90;;;;;;5001691;28;20177;-89
2021/11/07 02:23:07;;;;;;;7.10;6.38;;;9.10;99.90;;;;;;5018544;28;20319;-89
2021/11/07 02:25:36;;;;;;;7.82;7.13;;;11.90;99.90;;;;;;5021040;28;20259;-92
2021/11/07 02:28:10;;;;;;;7.60;7.05;;;10.30;99.90;;;;;;5018786;28;20192;-92
2021/11/07 02:30:52;;;;;;;8.23;7.57;;;10.40;99.90;;;;;;5020116;28;20188;-92
2021/11/07 02:33:53;;;;;;;5.97;5.40;;;8.50;99.90;;;;;;5022264;28;20470;-91
2021/11/07 02:36:23;;;;;;;8.88;8.27;;;13.20;99.90;;;;;;5018310;28;20411;-91
2021/11/07 02:38:51;;;;;;;7.45;6.85;;;9.20;99.90;;;;;;5021861;28;20215;-91
2021/11/07 02:41:21;;;;;;;8.63;7.97;;;11.00;99.90;;;;;;5022011;28;20157;-92
2021/11/07 02:44:04;;;;;;;8.52;7.75;;;9.50;99.90;;;;;;5037093;28;20410;-90
2021/11/07 02:49:06;;;;;;;9.23;8.52;;;9.20;99.90;;;;;;4999178;28;20237;-92
2021/11/07 02:51:40;;;;;;;11.27;10.15;;;13.50;99.90;;;;;;4993523;28;20174;-91
2021/11/07 02:54:09;;;;;;;5.35;5.05;;;8.30;99.90;;;;;;4992218;28;20194;-91
2021/11/07 02:56:38;;;;;;;9.02;8.18;;;8.30;99.90;;;;;;5005725;28;20193;-93
2021/11/07 02:59:45;;;;;;;7.97;7.53;;;9.00;99.90;;;;;;4996912;28;20254;-92
2021/11/07 03:03:15;;;;;;;20.70;7.28;;;9.20;99.90;;;;;;4978543;28;20226;-92
2021/11/07 03:06:19;;;;;;;4.93;4.63;;;11.80;99.90;;;;;;4971448;28;20166;-92
2021/11/07 03:19:14;;;;;;;6.70;6.37;;;9.20;99.90;;;;;;5617714;23;20257;-91
2021/11/07 03:30:38;;;;;;;8.82;8.15;;;9.80;99.90;;;;;;5276638;23;20224;-92
2021/11/07 03:49:31;;;;;;;9.95;9.35;;;9.50;99.90;;;;;;4927403;23;21288;-91
2021/11/07 04:44:18;;;;;;;9.47;8.70;;;9.70;99.90;;;;;;6086465;23;20424;-86
2021/11/07 05:36:51;;;;;;;11.40;10.30;;;9.90;99.90;;;;;;5076237;23;20497;-88
2021/11/07 05:39:18;;;;;;;12.03;10.73;;;9.80;99.90;;;;;;4981828;28;20456;-91
2021/11/07 05:44:26;;;;;;;8.88;8.20;;;9.80;99.90;;;;;;5056151;23;20480;-90
2021/11/07 05:49:38;;;;;;;12.77;11.30;;;9.80;99.90;;;;;;5173833;23;20209;-91
2021/11/07 05:52:24;;;;;;;15.73;11.68;;;14.20;99.90;;;;;;4972010;28;20577;-90
2021/11/07 05:55:15;;;;;;;13.50;12.27;;;9.80;99.90;;;;;;4977501;28;20186;-90
2021/11/07 05:58:25;;;;;;;11.27;10.40;;;10.00;99.90;;;;;;4979434;28;20460;-91
2021/11/07 06:00:52;;;;;;;13.20;12.00;;;11.00;99.90;;;;;;4972626;28;20418;-90
2021/11/07 06:03:20;;;;;;;13.20;12.10;;;10.30;99.90;;;;;;5009260;28;20436;-89
2021/11/07 06:05:52;;;;;;;14.47;12.97;;;9.40;99.90;;;;;;4971214;28;20417;-92
2021/11/07 06:08:27;;;;;;;14.60;13.33;;;12.70;99.90;;;;;;4994195;28;20413;-91
2021/11/07 06:11:07;;;;;;;14.80;13.27;;;9.10;99.90;;;;;;4990732;28;20397;-91
2021/11/07 06:13:36;;;;;;;13.00;12.00;;;10.20;99.90;;;;;;5005526;28;20539;-90
2021/11/07 06:16:18;;;;;;;12.82;11.48;;;10.20;99.90;;;;;;4991114;28;20425;-90
2021/11/07 06:18:47;;;;;;;13.27;11.97;;;11.90;99.90;;;;;;4995006;28;20208;-90
2021/11/07 06:21:31;;;;;;;10.57;9.60;;;10.20;99.90;;;;;;4996436;28;20421;-90
2021/11/07 06:24:04;;;;;;;12.83;11.60;;;12.50;99.90;;;;;;4976284;28;20431;-90
2021/11/07 06:26:37;;;;;;;10.60;9.75;;;10.90;99.90;;;;;;4974135;28;20418;-90
2021/11/07 06:29:10;;;;;;;12.43;11.43;;;12.20;99.90;;;;;;4976466;28;20162;-91
2021/11/07 06:31:37;;;;;;;11.15;10.18;;;12.80;99.90;;;;;;4989292;28;20185;-91
2021/11/07 06:34:11;;;;;;;13.30;12.10;;;9.70;99.90;;;;;;4994298;28;20175;-90
2021/11/07 06:37:10;;;;;;;14.82;13.15;;;11.20;99.90;;;;;;4997357;28;20237;-88
2021/11/07 06:43:16;;;;;;;14.52;13.10;;;12.60;99.90;;;;;;4981505;28;20269;-90
2021/11/07 06:45:48;;;;;;;17.20;15.35;;;12.60;99.90;;;;;;4994421;28;20248;-89
2021/11/07 06:48:14;;;;;;;17.40;15.80;;;11.60;99.90;;;;;;4961733;28;20193;-89
2021/11/07 06:50:56;;;;;;;16.83;15.10;;;11.10;99.90;;;;;;4989722;28;20225;-90
2021/11/07 06:53:28;;;;;;;16.42;15.07;;;12.50;99.90;;;;;;4973252;28;20457;-87
2021/11/07 06:55:57;;;;;;;15.50;14.20;;;10.60;99.90;;;;;;5004196;28;20676;-88
2021/11/07 06:58:24;;;;;;;16.67;15.15;;;9.40;99.90;;;;;;4977194;28;20210;-88
2021/11/07 07:00:55;;;;;;;15.07;13.60;;;9.60;99.90;;;;;;4975080;28;20193;-89
2021/11/07 07:03:36;;;;;;;18.17;15.57;;;11.20;99.90;;;;;;4992331;28;20193;-89
2021/11/07 07:06:07;;;;;;;17.23;15.65;;;12.70;99.90;;;;;;4995706;28;20437;-91
2021/11/07 07:08:48;;;;;;;17.10;15.35;;;11.50;99.90;;;;;;4977733;28;20178;-88
2021/11/07 07:14:28;;;;;;;16.73;15.10;;;10.70;99.90;;;;;;4910354;28;20173;-87
2021/11/07 07:29:28;;;;;;;16.00;14.50;;;12.80;99.90;;;;;;5001230;28;20231;-89
2021/11/07 07:34:57;;;;;;;14.10;12.57;;;9.20;99.90;;;;;;4995348;28;20189;-89
2021/11/07 07:37:22;;;;;;;14.60;13.13;;;11.20;99.90;;;;;;4959788;28;20178;-88
2021/11/07 07:39:53;;;;;;;13.80;12.60;;;9.50;99.90;;;;;;4977508;28;20269;-89
2021/11/07 07:42:24;;;;;;;15.80;14.25;;;9.30;99.90;;;;;;4995131;28;20162;-90
2021/11/07 07:45:03;;;;;;;15.93;12.90;;;11.10;99.90;;;;;;4976853;28;20177;-90
2021/11/07 07:48:00;;;;;;;11.90;10.90;;;14.50;99.90;;;;;;4642195;28;9999800;-90
2021/11/07 07:50:35;;;;;;;14.63;12.80;;;10.30;99.90;;;;;;4978823;28;20261;-88
2021/11/07 07:53:22;;;;;;;14.07;12.77;;;10.00;99.90;;;;;;4981994;28;20513;-90
2021/11/07 07:56:15;;;;;;;;;;;;;;;;;;;;;
2021/11/07 07:59:30;;;;;;;12.90;11.67;;;12.00;99.90;;;;;;4981729;28;20481;-90
2021/11/07 08:02:08;;;;;;;12.30;11.20;;;13.10;99.90;;;;;;4981321;28;20437;-90
2021/11/07 08:05:15;;;;;;;11.63;10.52;;;13.20;99.90;;;;;;4989255;28;20425;-89
2021/11/07 08:08:09;;;;;;;;;;;;;;;;;;;;;
2021/11/07 08:10:39;;;;;;;17.33;15.63;;;12.90;99.90;;;;;;4983023;28;20212;-90
2021/11/07 08:13:08;;;;;;;15.77;14.35;;;10.50;99.90;;;;;;4977606;28;20197;-90
2021/11/07 08:15:37;;;;;;;14.93;13.32;;;10.80;99.90;;;;;;4973435;28;20210;-89
2021/11/07 08:18:06;;;;;;;14.73;13.30;;;13.30;99.90;;;;;;5001193;28;20628;-90
2021/11/07 08:23:54;;;;;;;13.60;12.18;;;10.10;99.90;;;;;;5014196;28;20413;-90
2021/11/07 08:26:33;;;;;;;18.40;14.90;;;12.20;99.90;;;;;;4989268;28;20189;-89
2021/11/07 08:29:02;;;;;;;13.20;11.82;;;11.60;99.90;;;;;;4994650;28;20413;-88
2021/11/07 08:31:29;;;;;;;15.60;14.00;;;12.50;99.90;;;;;;4994265;28;20157;-88
2021/11/07 08:34:21;;;;;;;18.47;13.20;;;12.00;99.90;;;;;;4995390;28;20489;-89
2021/11/07 08:39:37;;;;;;;14.52;13.10;;;12.60;99.90;;;;;;4992201;28;20488;-89
2021/11/07 09:04:56;;;;;;;16.30;9.80;;;10.50;99.90;;;;;;4978844;28;20416;-89
2021/11/07 09:07:25;;;;;;;12.52;9.27;;;14.30;99.90;;;;;;4974821;28;20417;-88
2021/11/07 09:10:00;;;;;;;12.33;8.27;;;13.50;99.90;;;;;;4974704;28;20264;-87
2021/11/07 09:12:27;;;;;;;12.20;8.57;;;9.50;99.90;;;;;;4975129;28;20421;-87
2021/11/07 09:14:53;;;;;;;17.23;8.43;;;10.40;99.90;;;;;;4975932;28;20414;-88
2021/11/07 09:17:20;;;;;;;13.50;8.90;;;14.40;99.90;;;;;;4975916;28;20406;-88
2021/11/07 09:19:50;;;;;;;10.10;8.30;;;10.20;99.90;;;;;;4974730;28;20457;-86
2021/11/07 09:24:56;;;;;;;9.30;7.67;;;13.80;99.90;;;;;;4976345;28;20422;-88
2021/11/07 09:27:30;;;;;;;11.93;7.63;;;9.10;99.90;;;;;;4974777;28;20464;-88
2021/11/07 09:30:09;;;;;;;6.10;5.50;;;10.90;99.90;;;;;;4976998;28;20413;-88
2021/11/07 09:40:12;;;;;;;7.50;4.70;;;13.10;99.90;;;;;;4979016;28;20166;-89
2021/11/07 09:42:53;;;;;;;8.23;5.30;;;11.80;99.90;;;;;;4961137;28;20417;-87
2021/11/07 09:47:54;;;;;;;14.80;4.90;;;14.80;99.90;;;;;;4978337;28;20477;-89
2021/11/07 09:50:30;;;;;;;12.13;5.47;;;14.60;99.90;;;;;;4975976;28;20465;-89
2021/11/07 09:52:57;;;;;;;9.63;4.10;;;13.70;99.90;;;;;;4962409;28;20506;-87
2021/11/07 09:55:26;;;;;;;4.53;3.57;;;14.20;99.90;;;;;;4962465;28;20459;-89
2021/11/07 09:57:57;;;;;;;8.37;4.23;;;14.70;99.90;;;;;;4982077;28;20481;-90
2021/11/07 10:00:41;;;;;;;8.00;4.27;;;15.00;99.90;;;;;;4962149;28;20422;-90
2021/11/07 10:03:17;;;;;;;9.83;4.37;;;12.80;99.90;;;;;;4963445;28;20422;-90
2021/11/07 10:05:46;;;;;;;7.30;3.63;;;15.10;99.90;;;;;;4966189;28;20433;-89
2021/11/07 10:08:12;;;;;;;13.70;4.63;;;15.40;99.90;;;;;;4964643;28;20417;-89
2021/11/07 10:11:02;;;;;;;7.50;3.20;;;13.70;99.90;;;;;;4964121;28;20811;-88
2021/11/07 10:14:17;;;;;;;12.40;3.67;;;12.70;99.90;;;;;;4959594;28;20429;-88
2021/11/07 10:16:43;;;;;;;7.73;3.40;;;14.80;99.90;;;;;;4974525;28;20421;-89
2021/11/07 10:19:29;;;;;;;11.10;4.07;;;16.80;99.90;;;;;;4976853;28;20469;-90
2021/11/07 10:21:57;;;;;;;10.43;3.40;;;13.30;99.90;;;;;;4978293;28;20425;-91
2021/11/07 10:24:35;;;;;;;9.87;4.50;;;14.10;99.90;;;;;;4982670;28;20490;-90
2021/11/07 10:27:11;;;;;;;4.53;2.80;;;15.50;99.90;;;;;;4978558;28;20417;-88
2021/11/07 10:29:49;;;;;;;11.90;3.93;;;15.20;99.90;;;;;;4979241;28;20420;-90
2021/11/07 10:32:41;;;;;;;11.13;3.73;;;15.10;99.90;;;;;;4976272;28;20417;-90
2021/11/07 10:35:45;;;;;;;6.53;2.90;;;14.20;99.90;;;;;;4980609;28;20413;-86
2021/11/07 10:48:00;;;;;;;14.27;3.90;;;13.10;98.30;;;;;;4987933;28;20429;-90
2021/11/07 10:56:13;;;;;;;5.80;1.60;;;14.10;99.90;;;;;;4977043;28;20952;-88
2021/11/07 10:58:46;;;;;;;11.63;3.83;;;16.30;99.90;;;;;;4967104;28;20472;-88
2021/11/07 11:01:19;;;;;;;9.20;3.80;;;14.80;99.90;;;;;;4971392;28;20417;-91
2021/11/07 11:04:20;;;;;;;8.57;3.57;;;13.80;99.90;;;;;;4967568;28;20441;-88
2021/11/07 11:07:11;;;;;;;8.97;3.83;;;13.50;99.90;;;;;;4970269;28;20560;-88
2021/11/07 11:10:07;;;;;;;7.93;3.40;;;10.80;99.90;;;;;;4973259;28;20499;-93
2021/11/07 11:13:24;;;;;;;8.53;2.83;;;12.60;99.90;;;;;;4987958;28;20431;-89
2021/11/07 11:20:14;;;;;;;;;;;;;;;;;;;;;
2021/11/07 11:23:08;;;;;;;5.10;2.30;;;12.50;99.90;;;;;;4984361;28;20417;-90
2021/11/07 11:25:43;;;;;;;8.33;2.90;;;13.40;99.90;;;;;;4965010;28;20936;-88
2021/11/07 11:28:33;;;;;;;14.43;3.90;;;13.20;99.90;;;;;;4966693;28;20432;-88
2021/11/07 11:33:43;;;;;;;13.33;3.90;;;14.70;99.90;;;;;;4986962;28;20432;-89
2021/11/07 11:39:28;;;;;;;12.47;7.07;;;15.20;99.90;;;;;;4910316;29;20498;-90
2021/11/07 11:42:03;;;;;;;11.43;4.73;;;12.10;99.90;;;;;;4962560;28;20427;-90
2021/11/07 11:44:34;;;;;;;6.53;2.90;;;15.70;99.90;;;;;;4973070;28;20448;-90
2021/11/07 11:47:43;;;;;;;7.50;4.03;;;12.70;99.90;;;;;;4973903;28;21053;-91
2021/11/07 11:53:21;;;;;;;11.47;3.80;;;12.80;99.90;;;;;;4974605;28;20487;-92
2021/11/07 12:02:52;;;;;;;13.10;3.20;;;15.70;99.90;;;;;;4955727;28;20450;-92
2021/11/07 12:05:43;;;;;;;11.70;3.60;;;13.10;99.90;;;;;;4962163;29;20426;-91
2021/11/07 12:08:14;;;;;;;13.17;3.33;;;12.80;99.90;;;;;;4940167;29;20441;-90
2021/11/07 12:14:03;;;;;;;11.90;3.57;;;14.50;99.90;;;;;;4970127;29;20437;-89
2021/11/07 12:16:47;;;;;;;9.03;3.03;;;11.40;99.90;;;;;;4936491;29;20426;-91
2021/11/07 12:19:15;;;;;;;15.17;4.13;;;12.70;99.90;;;;;;4949857;29;20473;-90
2021/11/07 12:21:58;;;;;;;4.40;2.33;;;12.50;99.90;;;;;;4947055;29;20469;-88
2021/11/07 12:24:26;;;;;;;8.37;2.83;;;12.90;98.80;;;;;;4956820;29;20414;-89
2021/11/07 12:27:15;;;;;;;4.10;2.70;;;14.60;96.30;;;;;;4941557;29;20469;-89
2021/11/07 12:29:43;;;;;;;7.70;2.30;;;15.20;93.40;;;;;;4941481;29;20486;-89
2021/11/07 12:32:11;;;;;;;9.87;4.17;;;17.10;95.60;;;;;;4941292;29;20431;-87
2021/11/07 12:41:06;;;;;;;17.67;3.93;;;13.70;96.00;;;;;;4956533;29;20503;-88
2021/11/07 12:43:32;;;;;;;10.20;3.90;;;15.80;97.90;;;;;;4957995;29;20875;-91
2021/11/07 12:46:28;;;;;;;7.10;3.53;;;15.90;98.90;;;;;;4941182;29;20441;-88
2021/11/07 12:49:13;;;;;;;9.93;3.80;;;14.90;95.40;;;;;;4941546;29;20410;-88
2021/11/07 12:51:43;;;;;;;7.90;3.40;;;15.80;92.10;;;;;;4958130;29;20910;-88
2021/11/07 12:54:24;;;;;;;6.07;2.97;;;14.00;89.40;;;;;;4957272;29;20417;-88
2021/11/07 12:57:07;;;;;;;7.80;3.40;;;17.30;87.50;;;;;;4940600;29;20422;-87
2021/11/07 12:59:35;;;;;;;9.20;4.00;;;16.40;87.30;;;;;;4939977;29;20473;-89
2021/11/07 13:02:21;;;;;;;11.93;4.70;;;17.30;90.70;;;;;;4957636;28;20411;-88
2021/11/07 13:05:11;;;;;;;9.67;4.10;;;14.80;90.50;;;;;;4940787;29;20759;-89
2021/11/07 13:08:31;;;;;;;;;;;;;;;;;;;;;
2021/11/07 13:11:17;;;;;;;12.00;6.50;;;14.90;87.60;;;;;;4957101;29;20502;-88
2021/11/07 13:14:00;;;;;;;8.10;2.80;;;12.50;87.70;;;;;;4940014;29;20430;-89
2021/11/07 13:17:33;;;;;;;6.13;2.90;;;17.30;92.00;;;;;;4940255;29;20525;-87
2021/11/07 13:20:40;;;;;;;12.43;3.23;;;17.60;88.80;;;;;;4964336;28;20445;-88
2021/11/07 13:26:03;;;;;;;12.93;3.90;;;13.80;87.30;;;;;;4958449;29;20468;-88
2021/11/07 13:28:44;;;;;;;6.67;3.60;;;13.40;85.00;;;;;;4957109;29;20409;-88
2021/11/07 13:31:41;;;;;;;4.60;3.20;;;17.80;91.70;;;;;;4938802;29;20418;-87
2021/11/07 13:34:32;;;;;;;11.70;4.10;;;14.60;85.10;;;;;;4940422;29;20521;-90
2021/11/07 13:37:12;;;;;;;9.83;3.70;;;17.30;90.70;;;;;;4940913;29;20418;-87
2021/11/07 13:39:49;;;;;;;8.50;2.93;;;16.30;85.10;;;;;;4940766;29;20477;-86
2021/11/07 13:42:17;;;;;;;8.40;3.20;;;18.00;79.50;;;;;;4942118;29;20936;-89
2021/11/07 13:45:00;;;;;;;8.60;2.80;;;16.40;77.80;;;;;;4939642;29;20417;-88
2021/11/07 13:47:44;;;;;;;8.93;3.10;;;15.10;76.70;;;;;;4946450;29;20421;-90
2021/11/07 13:50:22;;;;;;;7.63;3.70;;;16.50;80.90;;;;;;4953442;29;20476;-88
2021/11/07 13:53:07;;;;;;;6.13;3.20;;;15.60;82.40;;;;;;4970038;28;20468;-87
2021/11/07 13:55:35;;;;;;;4.17;2.17;;;17.40;84.10;;;;;;4967444;28;20508;-88
2021/11/07 13:58:17;;;;;;;6.47;2.40;;;16.60;77.10;;;;;;4979193;28;20449;-87
2021/11/07 14:00:48;;;;;;;6.50;3.13;;;16.60;75.10;;;;;;4977183;28;20492;-89
2021/11/07 14:03:19;;;;;;;5.63;2.20;;;19.60;77.70;;;;;;4960649;28;20947;-88
2021/11/07 14:06:02;;;;;;;2.43;2.20;;;17.30;70.00;;;;;;4977924;28;20804;-88
2021/11/07 14:08:27;;;;;;;5.20;2.43;;;18.30;69.20;;;;;;4977844;28;20421;-87
2021/11/07 14:11:01;;;;;;;4.97;2.37;;;18.10;75.00;;;;;;4976824;28;20578;-88
2021/11/07 14:13:29;;;;;;;10.23;2.80;;;15.80;80.80;;;;;;4976987;28;20257;-86
2021/11/07 14:16:00;;;;;;;2.60;2.17;;;15.60;88.60;;;;;;4963239;28;20800;-87
2021/11/07 14:18:29;;;;;;;9.40;3.20;;;16.30;88.00;;;;;;4964563;28;20960;-85
2021/11/07 14:21:00;;;;;;;8.30;2.67;;;13.90;87.00;;;;;;4981981;28;20512;-87
2021/11/07 14:23:40;;;;;;;9.70;2.90;;;13.40;88.60;;;;;;4980410;28;20763;-86
2021/11/07 14:26:33;;;;;;;10.20;2.90;;;11.00;88.90;;;;;;4980600;28;20421;-87
2021/11/07 14:29:11;;;;;;;6.07;3.80;;;12.70;90.20;;;;;;4978984;28;20521;-87
2021/11/07 14:31:50;;;;;;;10.73;3.47;;;13.00;92.20;;;;;;4977840;28;20417;-87
2021/11/07 14:34:45;;;;;;;17.80;3.80;;;11.50;93.10;;;;;;4961165;28;20420;-86
2021/11/07 14:39:44;;;;;;;11.60;2.70;;;11.80;93.90;;;;;;4978167;28;20500;-83
2021/11/07 14:42:36;;;;;;;10.97;3.40;;;12.60;94.50;;;;;;4961306;28;20441;-85
2021/11/07 14:53:11;;;;;;;6.10;2.67;;;12.60;96.20;;;;;;4977136;28;20401;-88
2021/11/07 14:55:48;;;;;;;8.98;3.42;;;11.30;95.10;;;;;;4969635;28;20431;-86
2021/11/07 14:58:24;;;;;;;5.53;3.00;;;12.00;95.50;;;;;;4962491;28;20206;-87
2021/11/07 15:01:13;;;;;;;9.43;3.30;;;12.10;96.70;;;;;;4949066;28;20425;-87
2021/11/07 15:04:12;;;;;;;7.17;2.50;;;12.00;97.30;;;;;;4958657;28;20500;-85
2021/11/07 15:07:10;;;;;;;10.80;3.13;;;11.90;97.90;;;;;;4939969;29;20423;-85
2021/11/07 15:09:55;;;;;;;6.40;2.53;;;11.90;98.40;;;;;;4614290;28;10000252;-88
2021/11/07 15:12:52;;;;;;;7.60;3.73;;;11.10;99.50;;;;;;4961891;28;20166;-86
2021/11/07 15:17:56;;;;;;;9.87;3.70;;;12.50;99.90;;;;;;4991609;28;20524;-87
2021/11/07 15:20:50;;;;;;;13.90;3.50;;;13.60;99.90;;;;;;4983362;28;20425;-86
2021/11/07 15:23:37;;;;;;;8.27;3.40;;;13.70;99.90;;;;;;4974667;28;20401;-86
2021/11/07 15:26:26;;;;;;;13.83;4.80;;;13.70;99.90;;;;;;4955701;28;21197;-88
2021/11/07 15:28:58;;;;;;;8.13;3.20;;;10.50;99.90;;;;;;4973887;28;20413;-85
2021/11/07 15:31:29;;;;;;;13.80;4.50;;;10.90;99.90;;;;;;4973165;28;20177;-85
2021/11/07 15:33:58;;;;;;;6.80;3.00;;;12.00;99.90;;;;;;4973860;28;20418;-87
2021/11/07 15:36:32;;;;;;;14.00;3.23;;;13.50;99.90;;;;;;4973832;28;20412;-87
2021/11/07 15:39:13;;;;;;;13.17;3.60;;;11.80;99.90;;;;;;4973945;28;20841;-87
2021/11/07 15:42:01;;;;;;;9.03;3.33;;;11.80;99.90;;;;;;4955786;28;20453;-87
2021/11/07 15:44:27;;;;;;;7.87;4.63;;;11.00;99.90;;;;;;4973069;28;20945;-86
2021/11/07 15:46:58;;;;;;;12.30;3.90;;;13.50;99.90;;;;;;4974149;28;20500;-87
2021/11/07 15:49:27;;;;;;;11.80;3.90;;;11.80;99.90;;;;;;4898478;28;2241537;-86
2021/11/07 15:52:02;;;;;;;11.33;4.13;;;11.00;99.90;;;;;;4958617;28;20178;-87
2021/11/07 15:54:39;;;;;;;17.80;3.83;;;13.00;99.90;;;;;;4975800;28;20421;-88
2021/11/07 16:02:42;;;;;;;10.88;3.45;;;12.40;99.90;;;;;;4974718;28;20192;-88
2021/11/07 16:08:09;;;;;;;7.40;3.22;;;12.60;99.90;;;;;;4978255;28;20839;-89
2021/11/07 16:10:56;;;;;;;;;;;;;;;;;;;;;
2021/11/07 16:13:42;;;;;;;5.73;2.97;;;10.40;99.90;;;;;;4977920;28;20430;-89
2021/11/07 16:18:43;;;;;;;11.50;3.47;;;12.80;99.90;;;;;;4979817;28;20602;-90
2021/11/07 16:21:16;;;;;;;10.73;3.13;;;9.50;99.90;;;;;;4992484;28;20427;-88
2021/11/07 16:23:53;;;;;;;8.67;3.70;;;11.80;99.90;;;;;;4970657;28;20760;-88
2021/11/07 16:26:32;;;;;;;10.23;3.67;;;10.50;99.90;;;;;;4975218;28;20477;-88
2021/11/07 16:29:03;;;;;;;13.30;4.30;;;11.20;99.90;;;;;;4958662;29;20422;-87
2021/11/07 16:31:56;;;;;;;12.73;3.80;;;10.70;99.90;;;;;;4939252;29;20414;-88
2021/11/07 16:34:18;;;;;;;13.80;4.43;;;10.80;99.90;;;;;;4957764;28;20481;-87
2021/11/07 16:36:46;;;;;;;10.15;3.85;;;9.60;99.90;;;;;;4984547;28;20416;-87
2021/11/07 16:39:16;;;;;;;8.50;3.63;;;9.40;99.90;;;;;;4981339;28;20228;-86
2021/11/07 16:41:49;;;;;;;13.05;4.10;;;9.40;99.90;;;;;;4980823;28;20255;-91
2021/11/07 16:44:25;;;;;;;14.18;6.15;;;9.50;99.90;;;;;;4998273;28;20189;-89
2021/11/07 16:47:00;;;;;;;5.10;4.05;;;9.50;99.90;;;;;;5002302;28;20276;-88
2021/11/07 16:49:30;;;;;;;11.35;5.00;;;9.60;99.90;;;;;;4997707;28;20216;-85
2021/11/07 16:52:11;;;;;;;15.15;4.68;;;9.50;99.90;;;;;;4974909;28;20181;-86
2021/11/07 16:54:57;;;;;;;13.68;4.88;;;9.50;99.90;;;;;;4992905;28;20219;-87
2021/11/07 16:57:29;;;;;;;12.07;5.35;;;9.50;99.90;;;;;;4992076;28;20229;-85
2021/11/07 17:00:00;;;;;;;16.73;4.82;;;9.50;99.90;;;;;;4992951;28;20219;-86
2021/11/07 17:02:32;;;;;;;10.20;5.25;;;10.30;99.90;;;;;;4992890;28;20676;-87
2021/11/07 17:05:05;;;;;;;11.02;5.90;;;11.20;99.90;;;;;;4992045;28;20219;-85
2021/11/07 17:07:41;;;;;;;9.63;5.00;;;11.50;99.90;;;;;;4992867;28;20642;-85
2021/11/07 17:10:08;;;;;;;17.33;6.80;;;9.50;99.90;;;;;;4976821;28;20177;-84
2021/11/07 17:12:36;;;;;;;6.53;3.83;;;9.30;99.90;;;;;;4992664;28;20165;-84
2021/11/07 17:15:13;;;;;;;11.02;5.65;;;9.30;99.90;;;;;;4993191;28;20428;-84
2021/11/07 17:17:44;;;;;;;8.63;4.85;;;9.40;99.90;;;;;;4974089;28;20883;-85
2021/11/07 17:22:58;;;;;;;11.77;5.93;;;8.80;99.90;;;;;;4986435;28;20184;-84
2021/11/07 17:28:27;;;;;;;9.18;6.32;;;11.00;99.90;;;;;;4992553;28;20177;-85
2021/11/07 17:33:57;;;;;;;7.82;4.57;;;8.40;99.90;;;;;;4958630;28;20282;-86
2021/11/07 17:36:34;;;;;;;10.38;5.15;;;8.70;99.90;;;;;;4967015;28;20170;-85
2021/11/07 17:55:16;;;;;;;7.10;3.45;;;8.30;99.90;;;;;;4961066;29;20189;-89
2021/11/07 17:57:45;;;;;;;3.88;2.90;;;9.50;99.90;;;;;;4975882;28;20174;-90
2021/11/07 18:00:19;;;;;;;8.48;2.53;;;10.00;99.90;;;;;;4976854;28;20178;-88
2021/11/07 18:02:51;;;;;;;10.65;3.55;;;8.50;99.90;;;;;;4944402;29;20927;-89
2021/11/07 18:05:20;;;;;;;11.65;3.10;;;10.10;99.90;;;;;;4944930;29;20178;-86
2021/11/07 18:08:24;;;;;;;10.80;2.83;;;8.20;99.90;;;;;;4975692;28;20175;-89
2021/11/07 18:11:03;;;;;;;6.20;3.20;;;8.40;99.90;;;;;;4960361;28;20234;-90
2021/11/07 18:13:58;;;;;;;9.48;3.00;;;8.20;99.90;;;;;;4978063;28;20177;-91
2021/11/07 18:16:27;;;;;;;7.97;3.05;;;7.20;99.90;;;;;;5149932;23;20214;-90
2021/11/07 18:19:02;;;;;;;9.73;3.90;;;8.90;99.90;;;;;;4973705;29;20225;-88
2021/11/07 18:21:37;;;;;;;13.40;3.73;;;8.60;99.90;;;;;;4959489;29;20171;-88
2021/11/07 18:24:14;;;;;;;10.32;3.47;;;9.90;99.90;;;;;;4957633;29;20445;-90
2021/11/07 18:26:47;;;;;;;7.40;4.55;;;8.20;99.90;;;;;;4973740;28;20182;-91
2021/11/07 18:29:15;;;;;;;15.57;4.85;;;9.80;99.90;;;;;;4990522;28;20274;-86
2021/11/07 18:31:58;;;;;;;17.52;6.60;;;10.80;99.90;;;;;;4957917;29;20202;-89
2021/11/07 18:34:54;;;;;;;15.02;7.43;;;6.70;99.90;;;;;;4974701;29;20202;-89
2021/11/07 18:38:00;;;;;;;;;;;;;;;;;;;;;
2021/11/07 18:40:54;;;;;;;12.90;5.25;;;8.40;99.90;;;;;;4973237;29;20296;-90
2021/11/07 18:43:23;;;;;;;15.65;5.97;;;8.10;99.90;;;;;;4942884;29;20175;-89
2021/11/07 18:45:49;;;;;;;13.20;5.53;;;9.20;99.90;;;;;;4945595;29;20182;-87
2021/11/07 18:48:43;;;;;;;12.98;5.65;;;9.90;99.90;;;;;;4959440;28;20189;-86
2021/11/07 18:51:12;;;;;;;14.35;5.13;;;8.40;99.90;;;;;;4966840;29;20175;-88
2021/11/07 18:53:37;;;;;;;17.67;7.35;;;8.90;99.90;;;;;;4965833;28;20172;-89
2021/11/07 18:56:06;;;;;;;22.20;5.80;;;10.00;99.90;;;;;;4946589;29;20181;-90
2021/11/07 18:58:45;;;;;;;;;;;;;;;;;;;;;
2021/11/07 19:01:11;;;;;;;16.45;5.30;;;7.50;99.90;;;;;;4962046;29;20713;-90
2021/11/07 19:03:48;;;;;;;19.03;6.50;;;8.50;99.90;;;;;;4947491;29;20213;-89
2021/11/07 19:06:30;;;;;;;;;;;;;;;;;;;;;
2021/11/07 19:08:56;;;;;;;19.13;6.05;;;8.70;99.90;;;;;;4962066;29;20269;-89
2021/11/07 19:14:38;;;;;;;19.48;6.60;;;10.50;99.90;;;;;;4966672;28;20186;-88
2021/11/07 19:17:05;;;;;;;14.55;6.90;;;7.20;99.90;;;;;;4948718;29;20247;-89
2021/11/07 19:19:33;;;;;;;13.07;6.68;;;10.40;99.90;;;;;;4950305;29;20662;-88
2021/11/07 19:22:04;;;;;;;20.33;8.73;;;8.90;99.90;;;;;;4954631;28;20174;-89
2021/11/07 19:24:52;;;;;;;20.88;6.22;;;8.30;99.90;;;;;;4978664;28;20178;-89
2021/11/07 19:28:04;;;;;;;;;;;;;;;;;;;;;
2021/11/07 19:30:36;;;;;;;21.83;6.13;;;8.70;99.90;;;;;;4993241;28;20200;-90
2021/11/07 19:33:58;;;;;;;19.50;6.65;;;9.10;99.90;;;;;;4980820;28;20189;-89
2021/11/07 19:43:20;;;;;;;14.57;5.63;;;9.90;99.90;;;;;;4926044;28;20183;-90
2021/11/07 19:54:34;;;;;;;13.32;5.00;;;8.00;99.90;;;;;;5113681;23;20237;-89
2021/11/07 19:57:15;;;;;;;16.27;5.57;;;10.20;99.90;;;;;;4974888;29;20197;-89
2021/11/07 20:09:16;;;;;;;12.88;5.80;;;10.20;99.90;;;;;;4935128;29;20195;-90